createdAt,value
2022-08-28T00:00:59.530Z,27.69
2022-08-28T00:02:01.481Z,27.63
2022-08-28T00:03:04.672Z,27.58
2022-08-28T00:04:07.659Z,27.67
2022-08-28T00:05:11.564Z,27.65
2022-08-28T00:06:13.676Z,27.58
2022-08-28T00:07:15.497Z,27.63
2022-08-28T00:08:18.011Z,27.63
2022-08-28T00:09:19.794Z,27.63
2022-08-28T00:10:22.546Z,27.63
2022-08-28T00:11:24.708Z,27.63
2022-08-28T00:12:27.213Z,27.62
2022-08-28T00:13:29.159Z,27.62
2022-08-28T00:14:31.351Z,27.61
2022-08-28T00:15:37.476Z,27.58
2022-08-28T00:16:39.329Z,27.61
2022-08-28T00:17:42.064Z,27.56
2022-08-28T00:18:44.429Z,27.58
2022-08-28T00:19:49.101Z,27.56
2022-08-28T00:20:52.232Z,27.58
2022-08-28T00:21:54.779Z,27.57
2022-08-28T00:22:56.936Z,27.55
2022-08-28T00:24:00.299Z,27.54
2022-08-28T00:25:02.152Z,27.55
2022-08-28T00:26:04.087Z,27.54
2022-08-28T00:27:26.833Z,27.53
2022-08-28T00:28:30.014Z,27.59
2022-08-28T00:29:32.396Z,27.55
2022-08-28T00:30:44.266Z,27.55
2022-08-28T00:31:46.428Z,27.56
2022-08-28T00:32:49.211Z,27.53
2022-08-28T00:33:51.040Z,27.52
2022-08-28T00:34:52.998Z,27.51
2022-08-28T00:35:56.635Z,27.49
2022-08-28T00:36:58.460Z,27.49
2022-08-28T00:38:00.919Z,27.42
2022-08-28T00:39:04.551Z,27.47
2022-08-28T00:40:09.156Z,27.46
2022-08-28T00:41:11.223Z,27.44
2022-08-28T00:42:13.946Z,27.45
2022-08-28T00:43:38.590Z,27.49
2022-08-28T00:44:40.803Z,27.51
2022-08-28T00:45:42.633Z,27.45
2022-08-28T00:46:47.307Z,27.45
2022-08-28T00:47:49.708Z,27.41
2022-08-28T00:48:51.590Z,27.42
2022-08-28T00:49:56.027Z,27.37
2022-08-28T00:51:16.694Z,27.41
2022-08-28T00:52:20.374Z,27.46
2022-08-28T00:53:25.307Z,27.44
2022-08-28T00:54:34.131Z,27.37
2022-08-28T00:55:35.922Z,27.41
2022-08-28T00:56:39.973Z,27.38
2022-08-28T00:57:49.183Z,27.39
2022-08-28T00:58:52.715Z,27.39
2022-08-28T00:59:54.778Z,27.38
2022-08-28T01:00:56.586Z,27.37
2022-08-28T01:01:59.543Z,27.35
2022-08-28T01:03:02.248Z,27.35
2022-08-28T01:04:06.312Z,27.34
2022-08-28T01:05:09.859Z,27.33
2022-08-28T01:06:14.910Z,27.33
2022-08-28T01:07:17.430Z,27.31
2022-08-28T01:08:20.206Z,27.31
2022-08-28T01:09:24.679Z,27.31
2022-08-28T01:10:29.072Z,27.30
2022-08-28T01:11:31.651Z,27.24
2022-08-28T01:12:34.335Z,27.30
2022-08-28T01:13:39.790Z,27.27
2022-08-28T01:14:46.016Z,27.22
2022-08-28T01:15:50.011Z,27.30
2022-08-28T01:16:55.635Z,27.30
2022-08-28T01:18:07.904Z,27.28
2022-08-28T01:19:15.019Z,27.27
2022-08-28T01:20:21.168Z,27.30
2022-08-28T01:21:37.666Z,27.29
2022-08-28T01:23:12.684Z,27.36
2022-08-28T01:24:17.195Z,27.37
2022-08-28T01:25:22.390Z,27.32
2022-08-28T01:26:27.831Z,27.17
2022-08-28T01:27:30.239Z,27.23
2022-08-28T01:28:32.096Z,27.27
2022-08-28T01:29:34.325Z,27.21
2022-08-28T01:30:36.625Z,27.23
2022-08-28T01:31:40.705Z,27.23
2022-08-28T01:32:47.317Z,27.20
2022-08-28T01:33:49.147Z,27.24
2022-08-28T01:34:50.936Z,27.22
2022-08-28T01:35:52.910Z,27.16
2022-08-28T01:36:54.726Z,27.21
2022-08-28T01:38:00.954Z,27.17
2022-08-28T01:39:08.603Z,27.19
2022-08-28T01:40:13.938Z,27.21
2022-08-28T01:41:16.743Z,27.21
2022-08-28T01:42:18.649Z,27.21
2022-08-28T01:43:24.450Z,27.17
2022-08-28T01:44:27.704Z,27.19
2022-08-28T01:45:29.464Z,27.12
2022-08-28T01:46:31.876Z,27.18
2022-08-28T01:47:33.715Z,27.17
2022-08-28T01:48:40.423Z,27.16
2022-08-28T01:49:42.162Z,27.17
2022-08-28T01:50:44.659Z,27.16
2022-08-28T01:51:46.976Z,27.15
2022-08-28T01:52:50.404Z,27.16
2022-08-28T01:53:53.030Z,27.15
2022-08-28T01:54:54.815Z,27.14
2022-08-28T01:55:59.116Z,27.14
2022-08-28T01:57:00.887Z,27.14
2022-08-28T01:58:05.677Z,27.12
2022-08-28T01:59:10.677Z,27.12
2022-08-28T02:00:14.228Z,27.03
2022-08-28T02:01:19.598Z,27.12
2022-08-28T02:02:22.272Z,27.13
2022-08-28T02:03:24.367Z,27.12
2022-08-28T02:04:31.673Z,27.12
2022-08-28T02:05:35.230Z,27.04
2022-08-28T02:06:38.123Z,27.12
2022-08-28T02:07:40.127Z,27.12
2022-08-28T02:08:42.434Z,27.07
2022-08-28T02:09:44.317Z,27.10
2022-08-28T02:10:47.451Z,27.06
2022-08-28T02:11:49.271Z,27.09
2022-08-28T02:12:59.287Z,27.00
2022-08-28T02:14:01.674Z,27.10
2022-08-28T02:15:05.099Z,27.08
2022-08-28T02:16:09.856Z,27.07
2022-08-28T02:17:12.152Z,27.08
2022-08-28T02:18:14.550Z,27.06
2022-08-28T02:19:16.608Z,27.05
2022-08-28T02:20:19.094Z,27.04
2022-08-28T02:21:21.123Z,27.04
2022-08-28T02:22:22.874Z,27.03
2022-08-28T02:23:24.630Z,26.96
2022-08-28T02:24:26.634Z,27.03
2022-08-28T02:25:28.990Z,27.02
2022-08-28T02:26:31.966Z,26.97
2022-08-28T02:27:35.753Z,27.02
2022-08-28T02:28:37.950Z,26.99
2022-08-28T02:29:39.802Z,27.00
2022-08-28T02:30:41.653Z,26.95
2022-08-28T02:31:43.475Z,27.00
2022-08-28T02:32:46.553Z,26.83
2022-08-28T02:33:48.464Z,26.99
2022-08-28T02:34:50.218Z,26.99
2022-08-28T02:35:52.789Z,26.98
2022-08-28T02:36:54.874Z,26.91
2022-08-28T02:37:57.125Z,26.97
2022-08-28T02:39:02.483Z,26.98
2022-08-28T02:40:04.855Z,26.93
2022-08-28T02:41:07.837Z,26.96
2022-08-28T02:42:09.594Z,26.96
2022-08-28T02:43:11.344Z,26.91
2022-08-28T02:44:13.186Z,26.95
2022-08-28T02:45:15.525Z,26.92
2022-08-28T02:46:17.340Z,26.94
2022-08-28T02:47:19.402Z,26.95
2022-08-28T02:48:21.419Z,26.94
2022-08-28T02:49:24.124Z,26.94
2022-08-28T02:50:25.963Z,26.93
2022-08-28T02:51:31.367Z,26.93
2022-08-28T02:52:34.915Z,26.94
2022-08-28T02:53:37.038Z,26.95
2022-08-28T02:54:40.423Z,26.92
2022-08-28T02:55:42.286Z,26.93
2022-08-28T02:56:44.096Z,26.92
2022-08-28T02:57:47.538Z,26.91
2022-08-28T02:58:49.335Z,26.85
2022-08-28T02:59:51.139Z,26.91
2022-08-28T03:00:54.463Z,26.89
2022-08-28T03:01:56.247Z,26.90
2022-08-28T03:02:58.050Z,26.80
2022-08-28T03:04:03.139Z,26.88
2022-08-28T03:05:05.655Z,26.89
2022-08-28T03:06:08.240Z,26.81
2022-08-28T03:07:12.702Z,26.89
2022-08-28T03:08:14.590Z,26.89
2022-08-28T03:09:16.485Z,26.88
2022-08-28T03:10:18.806Z,26.87
2022-08-28T03:11:20.623Z,26.88
2022-08-28T03:12:25.951Z,26.86
2022-08-28T03:13:28.300Z,26.87
2022-08-28T03:14:31.021Z,26.87
2022-08-28T03:15:32.811Z,26.88
2022-08-28T03:16:34.710Z,26.86
2022-08-28T03:17:37.044Z,26.86
2022-08-28T03:18:38.960Z,26.85
2022-08-28T03:19:40.712Z,26.77
2022-08-28T03:20:42.525Z,26.85
2022-08-28T03:21:44.334Z,26.84
2022-08-28T03:23:04.577Z,26.84
2022-08-28T03:24:06.659Z,26.90
2022-08-28T03:25:09.437Z,26.86
2022-08-28T03:26:16.935Z,26.85
2022-08-28T03:27:18.726Z,26.85
2022-08-28T03:28:20.560Z,26.84
2022-08-28T03:29:22.311Z,26.76
2022-08-28T03:30:24.595Z,26.83
2022-08-28T03:31:28.775Z,26.82
2022-08-28T03:32:31.842Z,26.79
2022-08-28T03:33:35.049Z,26.77
2022-08-28T03:34:36.883Z,26.81
2022-08-28T03:35:38.798Z,26.81
2022-08-28T03:36:40.647Z,26.81
2022-08-28T03:37:42.880Z,26.80
2022-08-28T03:38:44.721Z,26.80
2022-08-28T03:39:46.915Z,26.79
2022-08-28T03:40:48.834Z,26.78
2022-08-28T03:41:51.621Z,26.78
2022-08-28T03:42:53.808Z,26.70
2022-08-28T03:43:58.113Z,26.75
2022-08-28T03:44:59.952Z,26.78
2022-08-28T03:46:03.816Z,26.78
2022-08-28T03:47:06.018Z,26.78
2022-08-28T03:48:08.326Z,26.78
2022-08-28T03:49:11.105Z,26.77
2022-08-28T03:50:14.413Z,26.76
2022-08-28T03:51:22.442Z,26.75
2022-08-28T03:52:31.681Z,26.80
2022-08-28T03:53:33.415Z,26.76
2022-08-28T03:54:35.239Z,26.77
2022-08-28T03:55:37.046Z,26.68
2022-08-28T03:56:42.134Z,26.69
2022-08-28T03:57:44.100Z,26.69
2022-08-28T03:58:45.839Z,26.74
2022-08-28T03:59:49.626Z,26.71
2022-08-28T04:00:51.467Z,26.72
2022-08-28T04:01:53.245Z,26.73
2022-08-28T04:02:55.140Z,26.72
2022-08-28T04:03:57.083Z,26.71
2022-08-28T04:04:58.891Z,26.65
2022-08-28T04:06:01.019Z,26.71
2022-08-28T04:07:02.854Z,26.71
2022-08-28T04:08:04.663Z,26.70
2022-08-28T04:09:06.876Z,26.63
2022-08-28T04:10:09.112Z,26.68
2022-08-28T04:11:10.979Z,26.65
2022-08-28T04:12:13.146Z,26.67
2022-08-28T04:13:17.436Z,26.67
2022-08-28T04:14:19.342Z,26.67
2022-08-28T04:15:21.379Z,26.66
2022-08-28T04:16:23.192Z,26.64
2022-08-28T04:17:25.655Z,26.63
2022-08-28T04:18:28.346Z,26.65
2022-08-28T04:19:30.421Z,26.66
2022-08-28T04:20:32.483Z,26.64
2022-08-28T04:21:34.310Z,26.64
2022-08-28T04:22:37.250Z,26.63
2022-08-28T04:23:43.247Z,26.63
2022-08-28T04:24:45.018Z,26.59
2022-08-28T04:25:46.780Z,26.57
2022-08-28T04:26:48.783Z,26.63
2022-08-28T04:27:51.452Z,26.61
2022-08-28T04:28:55.135Z,26.62
2022-08-28T04:29:57.987Z,26.63
2022-08-28T04:31:00.109Z,26.62
2022-08-28T04:32:02.665Z,26.56
2022-08-28T04:33:06.250Z,26.62
2022-08-28T04:34:09.266Z,26.60
2022-08-28T04:35:12.941Z,26.59
2022-08-28T04:36:17.337Z,26.59
2022-08-28T04:37:19.154Z,26.60
2022-08-28T04:38:21.049Z,26.60
2022-08-28T04:39:22.870Z,26.58
2022-08-28T04:40:24.781Z,26.59
2022-08-28T04:41:27.812Z,26.59
2022-08-28T04:42:29.575Z,26.50
2022-08-28T04:43:31.505Z,26.51
2022-08-28T04:44:33.411Z,26.51
2022-08-28T04:45:43.544Z,26.58
2022-08-28T04:46:45.439Z,26.60
2022-08-28T04:47:50.208Z,26.59
2022-08-28T04:48:52.256Z,26.58
2022-08-28T04:49:54.595Z,26.57
2022-08-28T04:50:56.522Z,26.54
2022-08-28T04:51:58.354Z,26.55
2022-08-28T04:53:00.303Z,26.57
2022-08-28T04:54:03.582Z,26.55
2022-08-28T04:55:05.818Z,26.49
2022-08-28T04:56:10.455Z,26.51
2022-08-28T04:57:12.199Z,26.57
2022-08-28T04:58:15.232Z,26.55
2022-08-28T04:59:17.044Z,26.54
2022-08-28T05:00:18.975Z,26.55
2022-08-28T05:01:27.029Z,26.54
2022-08-28T05:02:29.801Z,26.56
2022-08-28T05:03:32.472Z,26.54
2022-08-28T05:04:34.946Z,26.56
2022-08-28T05:05:42.070Z,26.55
2022-08-28T05:06:46.420Z,26.55
2022-08-28T05:07:48.368Z,26.57
2022-08-28T05:08:50.271Z,26.56
2022-08-28T05:09:54.795Z,26.54
2022-08-28T05:10:58.059Z,26.55
2022-08-28T05:12:04.026Z,26.54
2022-08-28T05:13:06.798Z,26.54
2022-08-28T05:14:12.801Z,26.55
2022-08-28T05:15:17.811Z,26.58
2022-08-28T05:16:21.191Z,26.56
2022-08-28T05:17:23.102Z,26.57
2022-08-28T05:18:25.582Z,26.55
2022-08-28T05:19:28.215Z,26.52
2022-08-28T05:20:29.983Z,26.54
2022-08-28T05:21:31.814Z,26.54
2022-08-28T05:22:33.944Z,26.55
2022-08-28T05:23:35.743Z,26.50
2022-08-28T05:24:38.144Z,26.54
2022-08-28T05:25:44.934Z,26.53
2022-08-28T05:26:48.257Z,26.49
2022-08-28T05:27:51.648Z,26.53
2022-08-28T05:28:54.633Z,26.53
2022-08-28T05:30:01.582Z,26.54
2022-08-28T05:31:23.857Z,26.60
2022-08-28T05:32:25.702Z,26.60
2022-08-28T05:33:27.811Z,26.57
2022-08-28T05:34:29.670Z,26.54
2022-08-28T05:35:39.448Z,26.53
2022-08-28T05:36:41.639Z,26.56
2022-08-28T05:37:43.398Z,26.53
2022-08-28T05:38:45.619Z,26.44
2022-08-28T05:39:47.503Z,26.52
2022-08-28T05:40:49.566Z,26.44
2022-08-28T05:41:51.995Z,26.51
2022-08-28T05:42:53.814Z,26.51
2022-08-28T05:44:01.257Z,26.49
2022-08-28T05:45:03.092Z,26.52
2022-08-28T05:46:10.618Z,26.49
2022-08-28T05:47:13.160Z,26.51
2022-08-28T05:48:16.390Z,26.51
2022-08-28T05:49:19.628Z,26.50
2022-08-28T05:50:21.647Z,26.49
2022-08-28T05:51:26.636Z,26.49
2022-08-28T05:52:29.986Z,26.45
2022-08-28T05:53:31.925Z,26.49
2022-08-28T05:54:34.194Z,26.49
2022-08-28T05:55:40.621Z,26.47
2022-08-28T05:56:44.764Z,26.48
2022-08-28T05:57:46.618Z,26.49
2022-08-28T05:58:48.645Z,26.44
2022-08-28T05:59:50.990Z,26.47
2022-08-28T06:00:52.832Z,26.47
2022-08-28T06:01:54.624Z,26.46
2022-08-28T06:02:56.391Z,26.46
2022-08-28T06:04:02.178Z,26.38
2022-08-28T06:05:04.300Z,26.46
2022-08-28T06:06:06.972Z,26.46
2022-08-28T06:07:12.141Z,26.47
2022-08-28T06:08:14.227Z,26.45
2022-08-28T06:09:26.579Z,26.46
2022-08-28T06:10:30.672Z,26.51
2022-08-28T06:11:32.846Z,26.48
2022-08-28T06:12:34.617Z,26.51
2022-08-28T06:13:37.692Z,26.51
2022-08-28T06:14:40.577Z,26.53
2022-08-28T06:15:44.442Z,26.51
2022-08-28T06:16:49.813Z,26.55
2022-08-28T06:17:51.782Z,26.58
2022-08-28T06:18:53.852Z,26.56
2022-08-28T06:19:55.710Z,26.62
2022-08-28T06:21:01.851Z,26.65
2022-08-28T06:22:07.316Z,26.61
2022-08-28T06:23:10.875Z,26.72
2022-08-28T06:24:13.743Z,26.75
2022-08-28T06:25:15.794Z,26.77
2022-08-28T06:26:17.910Z,26.77
2022-08-28T06:27:19.754Z,26.82
2022-08-28T06:28:24.885Z,26.84
2022-08-28T06:29:27.884Z,26.88
2022-08-28T06:30:29.711Z,26.91
2022-08-28T06:31:33.453Z,26.94
2022-08-28T06:32:35.573Z,26.97
2022-08-28T06:33:37.868Z,26.99
2022-08-28T06:34:39.794Z,27.02
2022-08-28T06:35:46.457Z,27.04
2022-08-28T06:36:53.120Z,27.04
2022-08-28T06:37:55.703Z,27.12
2022-08-28T06:39:00.147Z,27.12
2022-08-28T06:40:02.150Z,27.16
2022-08-28T06:41:11.376Z,27.17
2022-08-28T06:42:13.239Z,27.16
2022-08-28T06:43:17.132Z,27.23
2022-08-28T06:44:20.906Z,27.24
2022-08-28T06:45:22.807Z,27.25
2022-08-28T06:46:25.216Z,27.27
2022-08-28T06:47:27.003Z,27.29
2022-08-28T06:48:29.109Z,27.30
2022-08-28T06:49:30.859Z,27.31
2022-08-28T06:50:32.711Z,27.31
2022-08-28T06:51:35.712Z,27.26
2022-08-28T06:52:37.927Z,27.35
2022-08-28T06:53:45.272Z,27.36
2022-08-28T06:54:55.704Z,27.39
2022-08-28T06:56:09.199Z,27.42
2022-08-28T06:57:10.950Z,27.45
2022-08-28T06:58:13.392Z,27.44
2022-08-28T06:59:15.263Z,27.40
2022-08-28T07:00:17.197Z,27.42
2022-08-28T07:01:22.962Z,27.36
2022-08-28T07:02:28.257Z,27.47
2022-08-28T07:03:30.568Z,27.47
2022-08-28T07:04:32.412Z,27.42
2022-08-28T07:05:34.897Z,27.43
2022-08-28T07:06:39.966Z,27.48
2022-08-28T07:07:41.798Z,27.51
2022-08-28T07:08:44.683Z,27.48
2022-08-28T07:09:47.673Z,27.49
2022-08-28T07:10:49.483Z,27.50
2022-08-28T07:11:51.805Z,27.50
2022-08-28T07:12:53.608Z,27.51
2022-08-28T07:13:56.943Z,27.50
2022-08-28T07:14:58.852Z,27.51
2022-08-28T07:16:00.750Z,27.52
2022-08-28T07:17:02.634Z,27.51
2022-08-28T07:18:04.663Z,27.52
2022-08-28T07:19:08.641Z,27.51
2022-08-28T07:20:12.736Z,27.53
2022-08-28T07:21:14.605Z,27.50
2022-08-28T07:22:16.423Z,27.52
2022-08-28T07:23:18.163Z,27.53
2022-08-28T07:24:20.268Z,27.44
2022-08-28T07:25:22.091Z,27.53
2022-08-28T07:26:26.122Z,27.52
2022-08-28T07:27:27.891Z,27.46
2022-08-28T07:28:29.680Z,27.52
2022-08-28T07:29:31.516Z,27.52
2022-08-28T07:30:33.279Z,27.48
2022-08-28T07:31:35.238Z,27.53
2022-08-28T07:32:37.080Z,27.51
2022-08-28T07:33:40.262Z,27.51
2022-08-28T07:34:42.250Z,27.52
2022-08-28T07:35:44.521Z,27.52
2022-08-28T07:36:46.851Z,27.52
2022-08-28T07:37:49.215Z,27.52
2022-08-28T07:38:51.531Z,27.34
2022-08-28T07:39:55.709Z,27.54
2022-08-28T07:40:57.708Z,27.53
2022-08-28T07:41:59.468Z,27.53
2022-08-28T07:43:19.681Z,27.53
2022-08-28T07:44:40.051Z,27.53
2022-08-28T07:45:43.148Z,27.55
2022-08-28T07:46:45.936Z,27.56
2022-08-28T07:47:47.819Z,27.52
2022-08-28T07:48:49.862Z,27.48
2022-08-28T07:49:53.532Z,27.53
2022-08-28T07:50:55.392Z,27.53
2022-08-28T07:51:57.551Z,27.52
2022-08-28T07:52:59.367Z,27.53
2022-08-28T07:54:02.894Z,27.53
2022-08-28T07:55:06.359Z,27.53
2022-08-28T07:56:08.256Z,27.53
2022-08-28T07:57:10.395Z,27.51
2022-08-28T07:58:13.858Z,27.45
2022-08-28T07:59:19.096Z,27.54
2022-08-28T08:00:21.546Z,27.55
2022-08-28T08:01:23.497Z,27.53
2022-08-28T08:02:25.495Z,27.54
2022-08-28T08:03:30.753Z,27.49
2022-08-28T08:04:32.908Z,27.51
2022-08-28T08:05:34.705Z,27.55
2022-08-28T08:06:37.608Z,27.49
2022-08-28T08:07:43.886Z,27.54
2022-08-28T08:08:48.900Z,27.56
2022-08-28T08:09:50.727Z,27.56
2022-08-28T08:11:16.685Z,27.56
2022-08-28T08:12:19.183Z,27.62
2022-08-28T08:13:20.923Z,27.59
2022-08-28T08:14:23.518Z,27.55
2022-08-28T08:15:29.464Z,27.55
2022-08-28T08:16:35.972Z,27.53
2022-08-28T08:17:38.696Z,27.52
2022-08-28T08:18:41.819Z,27.55
2022-08-28T08:19:43.583Z,27.55
2022-08-28T08:20:45.471Z,27.52
2022-08-28T08:21:53.384Z,27.54
2022-08-28T08:22:57.243Z,27.56
2022-08-28T08:23:59.244Z,27.54
2022-08-28T08:25:03.793Z,27.54
2022-08-28T08:26:07.902Z,27.54
2022-08-28T08:27:10.669Z,27.51
2022-08-28T08:28:12.697Z,27.55
2022-08-28T08:29:15.596Z,27.51
2022-08-28T08:30:17.433Z,27.54
2022-08-28T08:31:25.184Z,27.54
2022-08-28T08:32:27.478Z,27.56
2022-08-28T08:33:29.302Z,27.53
2022-08-28T08:34:33.134Z,27.54
2022-08-28T08:35:36.522Z,27.52
2022-08-28T08:36:39.163Z,27.34
2022-08-28T08:37:41.089Z,27.55
2022-08-28T08:38:42.823Z,27.55
2022-08-28T08:39:44.744Z,27.54
2022-08-28T08:40:46.568Z,27.54
2022-08-28T08:41:51.831Z,27.53
2022-08-28T08:42:57.150Z,27.54
2022-08-28T08:44:23.908Z,27.55
2022-08-28T08:45:36.430Z,27.63
2022-08-28T08:46:53.011Z,27.62
2022-08-28T08:47:57.379Z,27.62
2022-08-28T08:49:10.479Z,27.59
2022-08-28T08:50:19.582Z,27.58
2022-08-28T08:51:35.578Z,27.59
2022-08-28T08:52:40.451Z,27.61
2022-08-28T08:53:59.309Z,27.60
2022-08-28T08:55:23.443Z,27.63
2022-08-28T08:56:25.286Z,27.65
2022-08-28T08:57:39.138Z,27.63
2022-08-28T08:58:47.410Z,27.61
2022-08-28T08:59:50.846Z,27.61
2022-08-28T09:01:01.401Z,27.55
2022-08-28T09:02:11.413Z,27.58
2022-08-28T09:03:16.206Z,27.55
2022-08-28T09:04:39.926Z,27.59
2022-08-28T09:05:48.428Z,27.62
2022-08-28T09:06:59.666Z,27.62
2022-08-28T09:08:03.067Z,27.61
2022-08-28T09:09:12.459Z,27.59
2022-08-28T09:10:15.823Z,27.56
2022-08-28T09:11:35.866Z,27.64
2022-08-28T09:12:52.915Z,27.62
2022-08-28T09:14:00.575Z,27.63
2022-08-28T09:15:11.420Z,27.60
2022-08-28T09:16:40.475Z,27.68
2022-08-28T09:18:08.486Z,27.70
2022-08-28T09:19:15.437Z,27.67
2022-08-28T09:20:32.333Z,27.65
2022-08-28T09:21:41.411Z,27.65
2022-08-28T09:22:47.543Z,27.64
2022-08-28T09:23:53.370Z,27.60
2022-08-28T09:24:55.500Z,27.61
2022-08-28T09:26:12.427Z,27.58
2022-08-28T09:27:32.666Z,27.65
2022-08-28T09:28:40.823Z,27.64
2022-08-28T09:29:43.412Z,27.63
2022-08-28T09:30:54.684Z,27.61
2022-08-28T09:31:57.767Z,27.64
2022-08-28T09:33:01.426Z,27.59
2022-08-28T09:34:25.838Z,27.59
2022-08-28T09:35:30.627Z,27.64
2022-08-28T09:36:37.706Z,27.64
2022-08-28T09:37:41.460Z,27.62
2022-08-28T09:38:43.259Z,27.62
2022-08-28T09:39:48.771Z,27.61
2022-08-28T09:41:25.353Z,27.61
2022-08-28T09:42:45.367Z,27.69
2022-08-28T09:43:47.196Z,27.69
2022-08-28T09:45:09.385Z,27.68
2022-08-28T09:46:29.713Z,27.65
2022-08-28T09:47:57.494Z,27.72
2022-08-28T09:49:14.303Z,27.72
2022-08-28T09:50:29.875Z,27.69
2022-08-28T09:51:31.698Z,27.68
2022-08-28T09:52:33.573Z,27.64
2022-08-28T09:53:59.559Z,27.66
2022-08-28T09:55:01.448Z,27.67
2022-08-28T09:56:11.100Z,27.62
2022-08-28T09:57:12.858Z,27.63
2022-08-28T09:58:15.651Z,27.63
2022-08-28T09:59:21.139Z,27.61
2022-08-28T10:00:23.109Z,27.62
2022-08-28T10:01:39.519Z,27.61
2022-08-28T10:02:50.262Z,27.63
2022-08-28T10:04:04.505Z,27.64
2022-08-28T10:05:16.418Z,27.67
2022-08-28T10:06:33.055Z,27.53
2022-08-28T10:08:01.400Z,27.72
2022-08-28T10:09:22.149Z,27.72
2022-08-28T10:10:31.027Z,27.72
2022-08-28T10:11:51.647Z,27.72
2022-08-28T10:13:11.746Z,27.72
2022-08-28T10:14:35.466Z,27.77
2022-08-28T10:16:12.123Z,27.79
2022-08-28T10:17:29.301Z,27.77
2022-08-28T10:18:56.487Z,27.78
2022-08-28T10:20:59.923Z,27.85
2022-08-28T10:22:36.755Z,27.83
2022-08-28T10:23:49.922Z,27.83
2022-08-28T10:25:09.971Z,27.78
2022-08-28T10:26:11.783Z,27.78
2022-08-28T10:27:53.275Z,27.76
2022-08-28T10:29:03.258Z,27.79
2022-08-28T10:30:13.178Z,27.65
2022-08-28T10:31:55.976Z,27.74
2022-08-28T10:33:07.575Z,27.82
2022-08-28T10:34:27.775Z,27.79
2022-08-28T10:35:44.032Z,27.74
2022-08-28T10:37:02.123Z,27.78
2022-08-28T10:38:18.399Z,27.56
2022-08-28T10:39:33.385Z,27.80
2022-08-28T10:40:55.696Z,27.81
2022-08-28T10:42:05.976Z,27.79
2022-08-28T10:43:48.436Z,27.86
2022-08-28T10:44:57.136Z,27.82
2022-08-28T10:46:12.351Z,27.80
2022-08-28T10:47:15.171Z,27.80
2022-08-28T10:48:25.355Z,27.77
2022-08-28T10:49:37.066Z,27.76
2022-08-28T10:50:50.983Z,27.76
2022-08-28T10:52:10.695Z,27.77
2022-08-28T10:53:21.371Z,27.79
2022-08-28T10:54:39.676Z,27.79
2022-08-28T10:55:59.359Z,27.80
2022-08-28T10:57:11.230Z,27.82
2022-08-28T10:58:24.992Z,27.80
2022-08-28T10:59:32.427Z,27.81
2022-08-28T11:00:37.786Z,27.81
2022-08-28T11:01:42.960Z,27.72
2022-08-28T11:02:50.057Z,27.77
2022-08-28T11:03:52.395Z,27.78
2022-08-28T11:04:58.497Z,27.72
2022-08-28T11:06:08.483Z,27.75
2022-08-28T11:07:15.291Z,27.77
2022-08-28T11:08:35.924Z,27.83
2022-08-28T11:09:46.263Z,27.83
2022-08-28T11:10:53.327Z,27.82
2022-08-28T11:12:07.099Z,27.83
2022-08-28T11:13:10.339Z,27.83
2022-08-28T11:14:47.652Z,27.87
2022-08-28T11:15:53.442Z,27.84
2022-08-28T11:16:59.653Z,27.85
2022-08-28T11:18:42.594Z,27.91
2022-08-28T11:20:09.554Z,27.97
2022-08-28T11:21:24.258Z,27.95
2022-08-28T11:22:38.097Z,27.92
2022-08-28T11:23:49.019Z,27.86
2022-08-28T11:25:09.805Z,27.89
2022-08-28T11:26:23.431Z,27.89
2022-08-28T11:27:38.144Z,27.90
2022-08-28T11:28:39.899Z,27.89
2022-08-28T11:30:01.998Z,27.90
2022-08-28T11:31:06.845Z,27.87
2022-08-28T11:32:54.979Z,27.89
2022-08-28T11:33:59.146Z,27.95
2022-08-28T11:35:22.698Z,27.86
2022-08-28T11:36:26.495Z,27.93
2022-08-28T11:37:44.447Z,27.90
2022-08-28T11:38:46.570Z,27.90
2022-08-28T11:39:48.453Z,27.82
2022-08-28T11:40:55.675Z,27.83
2022-08-28T11:42:14.005Z,27.87
2022-08-28T11:43:16.576Z,27.88
2022-08-28T11:44:27.001Z,27.85
2022-08-28T11:46:01.264Z,27.92
2022-08-28T11:47:34.001Z,27.97
2022-08-28T11:48:36.483Z,27.97
2022-08-28T11:49:42.210Z,27.89
2022-08-28T11:51:02.344Z,27.91
2022-08-28T11:52:04.124Z,27.91
2022-08-28T11:53:12.157Z,27.87
2022-08-28T11:54:32.646Z,27.82
2022-08-28T11:55:50.851Z,27.91
2022-08-28T11:57:14.804Z,27.95
2022-08-28T11:58:33.559Z,27.93
2022-08-28T11:59:50.652Z,27.94
2022-08-28T12:01:09.086Z,27.94
2022-08-28T12:02:43.240Z,27.98
2022-08-28T12:03:58.770Z,27.98
2022-08-28T12:05:01.279Z,27.96
2022-08-28T12:06:04.468Z,27.92
2022-08-28T12:07:12.188Z,27.91
2022-08-28T12:08:46.903Z,27.95
2022-08-28T12:09:50.026Z,27.96
2022-08-28T12:10:54.576Z,27.93
2022-08-28T12:11:59.899Z,27.90
2022-08-28T12:13:10.200Z,27.91
2022-08-28T12:14:33.437Z,27.89
2022-08-28T12:15:35.374Z,27.97
2022-08-28T12:16:55.857Z,27.98
2022-08-28T12:18:02.130Z,27.95
2022-08-28T12:19:04.817Z,27.95
2022-08-28T12:20:12.247Z,27.93
2022-08-28T12:21:17.946Z,27.92
2022-08-28T12:22:22.945Z,27.93
2022-08-28T12:23:38.142Z,27.90
2022-08-28T12:24:54.650Z,27.96
2022-08-28T12:26:07.035Z,27.98
2022-08-28T12:27:10.687Z,27.91
2022-08-28T12:28:21.657Z,27.90
2022-08-28T12:29:38.630Z,27.98
2022-08-28T12:30:56.453Z,27.99
2022-08-28T12:32:41.786Z,28.03
2022-08-28T12:34:12.395Z,28.12
2022-08-28T12:35:30.235Z,28.06
2022-08-28T12:36:32.398Z,28.05
2022-08-28T12:37:52.422Z,27.99
2022-08-28T12:38:58.141Z,28.00
2022-08-28T12:40:08.174Z,27.97
2022-08-28T12:41:17.685Z,27.98
2022-08-28T12:42:24.231Z,27.97
2022-08-28T12:43:46.803Z,27.98
2022-08-28T12:44:49.195Z,27.96
2022-08-28T12:45:54.438Z,27.97
2022-08-28T12:46:57.263Z,27.92
2022-08-28T12:48:02.788Z,27.90
2022-08-28T12:49:25.488Z,27.94
2022-08-28T12:50:38.484Z,27.98
2022-08-28T12:51:40.271Z,27.99
2022-08-28T12:52:50.347Z,27.94
2022-08-28T12:53:58.472Z,27.98
2022-08-28T12:55:00.240Z,27.99
2022-08-28T12:56:02.459Z,27.94
2022-08-28T12:57:10.868Z,27.95
2022-08-28T12:58:35.662Z,28.01
2022-08-28T12:59:49.739Z,28.03
2022-08-28T13:00:58.736Z,28.00
2022-08-28T13:02:09.349Z,28.00
2022-08-28T13:03:11.300Z,28.01
2022-08-28T13:04:34.394Z,28.03
2022-08-28T13:05:41.429Z,28.01
2022-08-28T13:06:43.644Z,28.00
2022-08-28T13:07:49.099Z,27.90
2022-08-28T13:08:57.738Z,27.93
2022-08-28T13:10:05.997Z,27.97
2022-08-28T13:11:07.882Z,27.97
2022-08-28T13:12:22.490Z,27.90
2022-08-28T13:13:47.214Z,27.96
2022-08-28T13:14:50.956Z,27.98
2022-08-28T13:16:01.585Z,28.01
2022-08-28T13:17:04.466Z,28.00
2022-08-28T13:18:08.474Z,27.99
2022-08-28T13:19:39.488Z,28.06
2022-08-28T13:20:43.827Z,28.02
2022-08-28T13:21:48.077Z,28.00
2022-08-28T13:22:50.744Z,28.00
2022-08-28T13:23:58.467Z,27.97
2022-08-28T13:25:03.688Z,27.98
2022-08-28T13:26:06.830Z,27.98
2022-08-28T13:27:14.632Z,27.98
2022-08-28T13:28:19.326Z,27.98
2022-08-28T13:29:24.002Z,27.98
2022-08-28T13:30:33.735Z,27.97
2022-08-28T13:31:40.845Z,27.98
2022-08-28T13:32:59.121Z,27.99
2022-08-28T13:34:21.874Z,28.02
2022-08-28T13:35:23.590Z,28.04
2022-08-28T13:36:26.330Z,27.98
2022-08-28T13:37:46.170Z,28.00
2022-08-28T13:38:47.998Z,28.00
2022-08-28T13:39:49.835Z,27.91
2022-08-28T13:40:59.387Z,27.95
2022-08-28T13:42:08.088Z,27.95
2022-08-28T13:43:11.833Z,27.97
2022-08-28T13:44:25.855Z,27.98
2022-08-28T13:45:30.572Z,27.99
2022-08-28T13:46:44.183Z,28.01
2022-08-28T13:47:45.975Z,27.99
2022-08-28T13:48:47.764Z,27.98
2022-08-28T13:49:49.548Z,27.96
2022-08-28T13:51:01.670Z,27.95
2022-08-28T13:52:07.791Z,27.96
2022-08-28T13:53:11.427Z,27.98
2022-08-28T13:54:14.527Z,27.97
2022-08-28T13:55:16.378Z,27.97
2022-08-28T13:56:18.386Z,27.96
2022-08-28T13:57:24.507Z,27.96
2022-08-28T13:58:29.332Z,27.80
2022-08-28T13:59:32.143Z,27.96
2022-08-28T14:00:39.935Z,27.95
2022-08-28T14:02:01.767Z,27.94
2022-08-28T14:03:21.880Z,28.04
2022-08-28T14:04:23.800Z,28.07
2022-08-28T14:05:26.572Z,28.03
2022-08-28T14:06:31.780Z,28.01
2022-08-28T14:07:33.823Z,27.99
2022-08-28T14:08:35.587Z,28.00
2022-08-28T14:09:38.402Z,27.98
2022-08-28T14:10:40.533Z,27.93
2022-08-28T14:11:43.289Z,27.98
2022-08-28T14:12:47.055Z,27.92
2022-08-28T14:13:55.369Z,27.92
2022-08-28T14:14:57.443Z,27.96
2022-08-28T14:15:59.535Z,27.99
2022-08-28T14:17:01.891Z,27.99
2022-08-28T14:18:03.792Z,27.99